ウィーン の空港の天気 - METARとTAF

ウィーン国際空港 ( LOWW / VIE ) - オーストリア ウィーン
飛行場実況気象(Metar)
観測時間01/22 10:50 CET (01/22 09:50 UTC)
風向・風速東南東 8m/s
視程6000m
天気現象
なし
気温-3℃
湿度74%
気圧1032hPa
METARLOWW 220950Z 12015KT 6000 SKC M03/M07 Q1032 R88/19//95 NOSIG
過去の天気等 Google飛行場航空写真 Wunderground天気予報

過去48時間のMETAR

飛行場予報(TAF)
発表時間: 1/22 06:15 CET (1/22 05:15 UTC)
予報対象時間: 22日7時 CET ~ 23日13時 CET
風向・風速南東 5m/s
視程7,000m
なし
22日7時 CET ~ 22日11時 CET に一時的に
視程4,000m
天気現象氷もや
全天の4割程度の雲 雲底高度 240m
22日11時 CET ~ 23日7時 CET に一時的に
風向・風速南東 8m/s 瞬間風速 13m/s
22日22時 CET ~ 22日24時 CET に徐々に
全天の4割程度の雲 雲底高度 610m
TAF LOWW 220515Z 2206/2312 13010KT 7000 NSC TXM00/2213Z TNM07/2206Z
TEMPO 2206/2210 4000 FZBR SCT008
TEMPO 2210/2306 14015G25KT
BECMG 2221/2223 SCT020